首页
METAR-TAF:

METAR-TAF

机场 :

Humberside, 英格兰

纬度: 53-35N, 经度: 000-21W, 海拔: 31米

当前天气观测

该预报发布于10分钟前的06:50 UTC
风速8节,风向西转西北
温度 8°C
湿度 93%
气压 1008 hPa
能见度10公里或以上
少量云层高于1500英尺
散云层高于4000英尺

METAR: EGNJ 200650Z 30008KT 9999 FEW015 SCT040 08/07 Q1008

时间: 08:00 (07:00 UTC)

预报

该预报发布于2小时和2分钟前的04:58 UTC
预报有效从20日的 06点(UTC)到 20日的 15点(UTC)
风速9节,风向西
能见度10公里或以上
少量云层高于1500英尺
散云层高于4500英尺
短暂存在
从 20日的 06点(UTC)到 20日的 09点(UTC)
能見度: 8000
多云层高于1200英尺
几率 30% :
短暂存在
从 20日的 12点(UTC)到 20日的 15点(UTC)
风速15节,风向西北,有时为25节阵风

TAF: EGNJ 200458Z 2006/2015 28009KT 9999 FEW015 SCT045 TEMPO 2006/2009 8000 BKN012 PROB30 TEMPO 2012/2015 31015G25KT

超过4000个机场的气象观测和天气预报(METAR&TAF报告)。

可查询的气象台以黄色和红色小点在地图上表示。

将鼠标移到小点上方,可查看气象台名称。

然后点击查看天气观测和预报。

如需切换地图:点击带黑十字的绿色按钮放大地图;点击带横线的绿色按钮缩小地图;或者点击绿色箭头查看邻近地区的地图。


METAR-TAF: